createdAt,value
2017-08-05T00:00:32.174Z,0
2017-08-05T00:01:12.534Z,0
2017-08-05T00:01:52.937Z,0
2017-08-05T00:02:33.378Z,0
2017-08-05T00:03:13.765Z,0
2017-08-05T00:03:54.151Z,0
2017-08-05T00:04:34.601Z,0
2017-08-05T00:05:14.962Z,0
2017-08-05T00:05:55.372Z,0
2017-08-05T00:06:35.818Z,0
2017-08-05T00:07:16.176Z,0
2017-08-05T00:07:56.567Z,0
2017-08-05T00:08:37.011Z,0
2017-08-05T00:09:17.392Z,0
2017-08-05T00:09:57.762Z,0
2017-08-05T00:10:38.206Z,0
2017-08-05T00:11:18.576Z,0
2017-08-05T00:11:58.989Z,0
2017-08-05T00:12:39.402Z,0
2017-08-05T00:13:19.753Z,0
2017-08-05T00:14:00.222Z,0
2017-08-05T00:14:40.629Z,0
2017-08-05T00:15:20.993Z,0
2017-08-05T00:16:01.401Z,0
2017-08-05T00:16:41.745Z,0
2017-08-05T00:17:22.140Z,0
2017-08-05T00:18:02.576Z,0
2017-08-05T00:18:42.937Z,0
2017-08-05T00:19:23.397Z,0
2017-08-05T00:20:03.779Z,0
2017-08-05T00:20:44.314Z,0
2017-08-05T00:21:24.682Z,0
2017-08-05T00:22:05.067Z,0
2017-08-05T00:22:45.455Z,0
2017-08-05T00:23:25.904Z,0
2017-08-05T00:24:06.384Z,0
2017-08-05T00:24:46.858Z,0
2017-08-05T00:25:27.200Z,0
2017-08-05T00:26:07.592Z,0
2017-08-05T00:26:48.022Z,0
2017-08-05T00:27:28.423Z,0
2017-08-05T00:28:08.822Z,0
2017-08-05T00:28:49.293Z,0
2017-08-05T00:29:29.678Z,0
2017-08-05T00:30:10.146Z,0
2017-08-05T00:30:50.469Z,0
2017-08-05T00:31:30.855Z,0
2017-08-05T00:32:11.267Z,0
2017-08-05T00:32:51.666Z,0
2017-08-05T00:33:32.036Z,0
2017-08-05T00:34:12.451Z,0
2017-08-05T00:34:52.878Z,0
2017-08-05T00:35:33.211Z,0
2017-08-05T00:36:13.649Z,0
2017-08-05T00:36:54.067Z,0
2017-08-05T00:37:34.394Z,0
2017-08-05T00:38:14.823Z,0
2017-08-05T00:38:55.203Z,0
2017-08-05T00:39:35.587Z,0
2017-08-05T00:40:16.042Z,0
2017-08-05T00:40:56.495Z,0
2017-08-05T00:41:36.892Z,0
2017-08-05T00:42:17.339Z,0
2017-08-05T00:42:57.760Z,0
2017-08-05T00:43:38.139Z,0
2017-08-05T00:44:18.617Z,0
2017-08-05T00:44:58.985Z,0
2017-08-05T00:45:39.380Z,0
2017-08-05T00:46:19.868Z,0
2017-08-05T00:47:00.199Z,0
2017-08-05T00:47:40.620Z,0
2017-08-05T00:48:20.990Z,0
2017-08-05T00:49:01.411Z,0
2017-08-05T00:49:41.760Z,0
2017-08-05T00:50:22.189Z,0
2017-08-05T00:51:02.537Z,0
2017-08-05T00:51:43.001Z,0
2017-08-05T00:52:23.392Z,0
2017-08-05T00:53:03.830Z,0
2017-08-05T00:53:44.138Z,0
2017-08-05T00:54:24.537Z,0
2017-08-05T00:55:04.932Z,0
2017-08-05T00:55:45.322Z,0
2017-08-05T00:56:25.729Z,0
2017-08-05T00:57:06.146Z,0
2017-08-05T00:57:46.581Z,0
2017-08-05T00:58:26.869Z,0
2017-08-05T00:59:07.324Z,0
2017-08-05T00:59:47.748Z,0
2017-08-05T01:00:28.147Z,0
2017-08-05T01:01:08.488Z,0
2017-08-05T01:01:48.974Z,0
2017-08-05T01:02:29.357Z,0
2017-08-05T01:03:09.796Z,0
2017-08-05T01:03:50.145Z,0
2017-08-05T01:04:30.547Z,0
2017-08-05T01:05:10.919Z,0
2017-08-05T01:05:51.328Z,0
2017-08-05T01:06:31.738Z,0
2017-08-05T01:07:12.161Z,0
2017-08-05T01:07:52.497Z,0
2017-08-05T01:08:32.938Z,0
2017-08-05T01:09:13.386Z,0
2017-08-05T01:09:53.768Z,0
2017-08-05T01:10:34.207Z,0
2017-08-05T01:11:14.565Z,0
2017-08-05T01:11:55.048Z,0
2017-08-05T01:12:35.508Z,0
2017-08-05T01:13:15.876Z,0
2017-08-05T01:13:56.267Z,0
2017-08-05T01:14:36.674Z,0
2017-08-05T01:15:17.101Z,0
2017-08-05T01:15:57.618Z,0
2017-08-05T01:16:38.097Z,0
2017-08-05T01:17:18.510Z,0
2017-08-05T01:17:58.845Z,0
2017-08-05T01:18:39.339Z,0
2017-08-05T01:19:19.694Z,0
2017-08-05T01:20:00.073Z,0
2017-08-05T01:20:40.485Z,0
2017-08-05T01:21:20.919Z,0
2017-08-05T01:22:01.261Z,0
2017-08-05T01:22:41.669Z,0
2017-08-05T01:23:21.982Z,0
2017-08-05T01:24:02.428Z,0
2017-08-05T01:24:42.838Z,0
2017-08-05T01:25:23.385Z,0
2017-08-05T01:26:03.802Z,0
2017-08-05T01:26:44.213Z,0
2017-08-05T01:27:24.611Z,0
2017-08-05T01:28:05.025Z,0
2017-08-05T01:28:45.442Z,0
2017-08-05T01:29:25.808Z,0
2017-08-05T01:30:06.248Z,0
2017-08-05T01:30:47.470Z,0
2017-08-05T01:31:27.059Z,0
2017-08-05T01:32:07.416Z,0
2017-08-05T01:32:47.889Z,0
2017-08-05T01:33:28.299Z,0
2017-08-05T01:34:08.789Z,0
2017-08-05T01:34:49.173Z,0
2017-08-05T01:35:29.577Z,0
2017-08-05T01:36:09.984Z,0
2017-08-05T01:36:50.393Z,0
2017-08-05T01:37:30.806Z,0
2017-08-05T01:38:11.205Z,0
2017-08-05T01:38:51.571Z,0
2017-08-05T01:39:31.968Z,0
2017-08-05T01:40:12.383Z,0
2017-08-05T01:40:52.785Z,0
2017-08-05T01:41:33.166Z,0
2017-08-05T01:42:13.590Z,0
2017-08-05T01:42:53.948Z,0
2017-08-05T01:43:34.452Z,0
2017-08-05T01:44:14.843Z,0
2017-08-05T01:44:55.247Z,0
2017-08-05T01:45:35.629Z,0
2017-08-05T01:46:15.991Z,0
2017-08-05T01:46:56.409Z,0
2017-08-05T01:47:36.780Z,0
2017-08-05T01:48:17.275Z,0
2017-08-05T01:48:57.704Z,0
2017-08-05T01:49:38.245Z,0
2017-08-05T01:50:18.653Z,0
2017-08-05T01:50:59.084Z,0
2017-08-05T01:51:39.436Z,0
2017-08-05T01:52:19.895Z,0
2017-08-05T01:53:00.316Z,0
2017-08-05T01:53:40.703Z,0
2017-08-05T01:54:21.130Z,0
2017-08-05T01:55:01.474Z,0
2017-08-05T01:55:41.876Z,0
2017-08-05T01:56:22.281Z,0
2017-08-05T01:57:02.667Z,0
2017-08-05T01:57:43.018Z,0
2017-08-05T01:58:23.496Z,0
2017-08-05T01:59:03.826Z,0
2017-08-05T01:59:44.284Z,0
2017-08-05T02:00:24.689Z,0
2017-08-05T02:01:05.146Z,0
2017-08-05T02:01:45.525Z,0
2017-08-05T02:02:25.948Z,0
2017-08-05T02:03:06.282Z,0
2017-08-05T02:03:46.742Z,0
2017-08-05T02:04:27.138Z,0
2017-08-05T02:05:07.515Z,0
2017-08-05T02:05:47.939Z,0
2017-08-05T02:06:28.330Z,0
2017-08-05T02:07:08.677Z,0
2017-08-05T02:07:49.095Z,0
2017-08-05T02:08:29.566Z,0
2017-08-05T02:09:09.943Z,0
2017-08-05T02:09:50.332Z,0
2017-08-05T02:10:30.723Z,0
2017-08-05T02:11:11.128Z,0
2017-08-05T02:11:51.489Z,0
2017-08-05T02:12:31.863Z,0
2017-08-05T02:13:12.344Z,0
2017-08-05T02:13:52.734Z,0
2017-08-05T02:14:33.173Z,0
2017-08-05T02:15:13.531Z,0
2017-08-05T02:15:53.946Z,0
2017-08-05T02:16:34.411Z,0
2017-08-05T02:17:14.833Z,0
2017-08-05T02:17:55.209Z,0
2017-08-05T02:18:35.592Z,0
2017-08-05T02:19:16.105Z,0
2017-08-05T02:19:56.418Z,0
2017-08-05T02:20:36.803Z,0
2017-08-05T02:21:17.222Z,0
2017-08-05T02:21:57.681Z,0
2017-08-05T02:22:38.035Z,0
2017-08-05T02:23:18.462Z,0
2017-08-05T02:23:58.874Z,0
2017-08-05T02:24:39.227Z,0
2017-08-05T02:25:19.629Z,0
2017-08-05T02:26:00.073Z,0
2017-08-05T02:26:40.435Z,0
2017-08-05T02:27:20.808Z,0
2017-08-05T02:28:01.263Z,0
2017-08-05T02:28:41.687Z,0
2017-08-05T02:29:22.209Z,0
2017-08-05T02:30:02.647Z,0
2017-08-05T02:30:42.981Z,0
2017-08-05T02:31:23.437Z,0
2017-08-05T02:32:03.906Z,0
2017-08-05T02:32:44.284Z,0
2017-08-05T02:33:24.698Z,0
2017-08-05T02:34:05.075Z,0
2017-08-05T02:34:45.536Z,0
2017-08-05T02:35:25.936Z,0
2017-08-05T02:36:06.330Z,0
2017-08-05T02:36:46.793Z,0
2017-08-05T02:37:27.169Z,0
2017-08-05T02:38:07.544Z,0
2017-08-05T02:38:47.961Z,0
2017-08-05T02:39:28.338Z,0
2017-08-05T02:40:08.725Z,0
2017-08-05T02:40:49.204Z,0
2017-08-05T02:41:29.577Z,0
2017-08-05T02:42:10.026Z,0
2017-08-05T02:42:50.397Z,0
2017-08-05T02:43:30.816Z,0
2017-08-05T02:44:11.161Z,0
2017-08-05T02:44:51.643Z,0
2017-08-05T02:45:31.988Z,0
2017-08-05T02:46:12.391Z,0
2017-08-05T02:46:52.863Z,0
2017-08-05T02:47:33.198Z,0
2017-08-05T02:48:13.591Z,0
2017-08-05T02:48:53.996Z,0
2017-08-05T02:49:34.475Z,0
2017-08-05T02:50:14.878Z,0
2017-08-05T02:50:55.319Z,0
2017-08-05T02:51:35.604Z,0
2017-08-05T02:52:16.089Z,0
2017-08-05T02:52:56.454Z,0
2017-08-05T02:53:36.818Z,0
2017-08-05T02:54:17.257Z,0
2017-08-05T02:54:57.651Z,0
2017-08-05T02:55:38.087Z,0
2017-08-05T02:56:18.494Z,0
2017-08-05T02:56:58.893Z,0
2017-08-05T02:57:39.370Z,0
2017-08-05T02:58:19.682Z,0
2017-08-05T02:59:00.115Z,0
2017-08-05T02:59:40.524Z,0
2017-08-05T03:00:20.935Z,0
2017-08-05T03:01:01.448Z,0
2017-08-05T03:01:41.958Z,0
2017-08-05T03:02:22.319Z,0
2017-08-05T03:03:02.686Z,0
2017-08-05T03:03:43.139Z,0
2017-08-05T03:04:23.522Z,0
2017-08-05T03:05:04.066Z,0
2017-08-05T03:05:44.442Z,0
2017-08-05T03:06:24.941Z,0
2017-08-05T03:07:05.374Z,0
2017-08-05T03:07:45.845Z,0
2017-08-05T03:08:26.186Z,0
2017-08-05T03:09:06.588Z,0
2017-08-05T03:09:46.996Z,0
2017-08-05T03:10:27.465Z,0
2017-08-05T03:11:07.881Z,0
2017-08-05T03:11:48.251Z,0
2017-08-05T03:12:28.661Z,0
2017-08-05T03:13:09.125Z,0
2017-08-05T03:13:49.493Z,0
2017-08-05T03:14:29.930Z,0
2017-08-05T03:15:10.341Z,0
2017-08-05T03:15:50.777Z,0
2017-08-05T03:16:31.191Z,0
2017-08-05T03:17:11.690Z,0
2017-08-05T03:17:52.230Z,0
2017-08-05T03:18:32.593Z,0
2017-08-05T03:19:13.025Z,0
2017-08-05T03:19:53.480Z,0
2017-08-05T03:20:33.799Z,0
2017-08-05T03:21:14.219Z,0
2017-08-05T03:21:54.750Z,0
2017-08-05T03:22:35.090Z,0
2017-08-05T03:23:15.468Z,0
2017-08-05T03:23:55.870Z,0
2017-08-05T03:24:36.311Z,0
2017-08-05T03:25:16.692Z,0
2017-08-05T03:25:57.112Z,0
2017-08-05T03:26:37.567Z,0
2017-08-05T03:27:17.937Z,0
2017-08-05T03:27:58.333Z,0
2017-08-05T03:28:38.732Z,0
2017-08-05T03:31:02.755Z,0
2017-08-05T03:33:02.611Z,4
2017-08-05T03:33:43.050Z,4
2017-08-05T03:34:23.405Z,4
2017-08-05T03:35:03.835Z,0
2017-08-05T03:35:44.293Z,0
2017-08-05T03:36:24.689Z,4
2017-08-05T03:37:05.097Z,4
2017-08-05T03:37:45.515Z,4
2017-08-05T03:38:25.892Z,4
2017-08-05T03:39:06.392Z,4
2017-08-05T03:39:46.864Z,4
2017-08-05T03:40:27.303Z,4
2017-08-05T03:41:07.662Z,4
2017-08-05T03:41:48.120Z,4
2017-08-05T03:42:28.565Z,4
2017-08-05T03:43:08.992Z,8
2017-08-05T03:43:49.421Z,4
2017-08-05T03:44:29.775Z,8
2017-08-05T03:45:10.230Z,8
2017-08-05T03:45:50.574Z,12
2017-08-05T03:46:31.011Z,8
2017-08-05T03:47:11.419Z,8
2017-08-05T03:47:51.816Z,8
2017-08-05T03:48:32.178Z,12
2017-08-05T03:49:12.651Z,8
2017-08-05T03:49:53.076Z,12
2017-08-05T03:50:33.459Z,12
2017-08-05T03:51:13.802Z,16
2017-08-05T03:51:54.289Z,16
2017-08-05T03:52:34.685Z,20
2017-08-05T03:53:15.092Z,16
2017-08-05T03:53:55.655Z,20
2017-08-05T03:54:36.014Z,20
2017-08-05T03:55:16.337Z,24
2017-08-05T03:55:56.817Z,24
2017-08-05T03:56:37.149Z,28
2017-08-05T03:57:17.581Z,28
2017-08-05T03:57:58.009Z,32
2017-08-05T03:58:38.428Z,36
2017-08-05T03:59:18.872Z,40
2017-08-05T03:59:59.365Z,44
2017-08-05T04:00:39.826Z,44
2017-08-05T04:01:20.161Z,48
2017-08-05T04:02:00.624Z,52
2017-08-05T04:02:41.005Z,52
2017-08-05T04:03:21.418Z,56
2017-08-05T04:04:01.863Z,56
2017-08-05T04:04:42.290Z,60
2017-08-05T04:05:22.715Z,60
2017-08-05T04:06:03.073Z,52
2017-08-05T04:06:43.510Z,48
2017-08-05T04:07:23.890Z,48
2017-08-05T04:08:04.359Z,52
2017-08-05T04:08:44.748Z,56
2017-08-05T04:09:25.160Z,60
2017-08-05T04:10:05.670Z,64
2017-08-05T04:10:46.043Z,68
2017-08-05T04:11:26.568Z,72
2017-08-05T04:12:07.023Z,80
2017-08-05T04:12:47.361Z,80
2017-08-05T04:13:27.821Z,88
2017-08-05T04:14:08.329Z,100
2017-08-05T04:14:48.743Z,116
2017-08-05T04:15:29.066Z,140
2017-08-05T04:16:09.469Z,168
2017-08-05T04:16:49.927Z,192
2017-08-05T04:17:30.306Z,200
2017-08-05T04:18:10.757Z,212
2017-08-05T04:18:51.095Z,228
2017-08-05T04:19:31.493Z,236
2017-08-05T04:20:11.862Z,244
2017-08-05T04:20:52.319Z,252
2017-08-05T04:21:32.698Z,264
2017-08-05T04:22:13.168Z,276
2017-08-05T04:22:53.623Z,280
2017-08-05T04:23:34.064Z,280
2017-08-05T04:24:14.401Z,264
2017-08-05T04:24:54.882Z,248
2017-08-05T04:25:35.305Z,240
2017-08-05T04:26:15.687Z,240
2017-08-05T04:26:56.002Z,240
2017-08-05T04:27:36.485Z,252
2017-08-05T04:28:16.882Z,260
2017-08-05T04:28:57.253Z,268
2017-08-05T04:29:37.741Z,276
2017-08-05T04:30:18.098Z,284
2017-08-05T04:30:58.477Z,296
2017-08-05T04:31:38.887Z,304
2017-08-05T04:32:19.323Z,296
2017-08-05T04:32:59.783Z,276
2017-08-05T04:33:40.166Z,264
2017-08-05T04:34:20.596Z,280
2017-08-05T04:35:01.061Z,312
2017-08-05T04:35:41.469Z,340
2017-08-05T04:36:21.865Z,352
2017-08-05T04:37:02.300Z,352
2017-08-05T04:37:42.719Z,336
2017-08-05T04:38:23.105Z,316
2017-08-05T04:39:03.535Z,296
2017-08-05T04:39:43.921Z,280
2017-08-05T04:40:24.378Z,292
2017-08-05T04:41:04.789Z,324
2017-08-05T04:41:45.236Z,368
2017-08-05T04:42:25.548Z,440
2017-08-05T04:43:06.048Z,500
2017-08-05T04:43:46.468Z,516
2017-08-05T04:44:26.815Z,520
2017-08-05T04:45:07.248Z,520
2017-08-05T04:45:47.629Z,528
2017-08-05T04:46:28.066Z,552
2017-08-05T04:47:08.496Z,592
2017-08-05T04:47:48.859Z,624
2017-08-05T04:48:29.311Z,652
2017-08-05T04:49:09.680Z,692
2017-08-05T04:49:50.162Z,756
2017-08-05T04:50:30.522Z,828
2017-08-05T04:51:10.961Z,884
2017-08-05T04:51:51.348Z,896
2017-08-05T04:52:31.766Z,844
2017-08-05T04:53:12.173Z,764
2017-08-05T04:53:52.524Z,704
2017-08-05T04:54:32.982Z,688
2017-08-05T04:55:13.389Z,680
2017-08-05T04:55:53.772Z,680
2017-08-05T04:56:34.184Z,692
2017-08-05T04:57:14.720Z,724
2017-08-05T04:57:55.099Z,780
2017-08-05T04:58:35.528Z,848
2017-08-05T04:59:15.905Z,904
2017-08-05T04:59:56.379Z,956
2017-08-05T05:00:36.764Z,1004
2017-08-05T05:01:17.127Z,1072
2017-08-05T05:01:57.583Z,1144
2017-08-05T05:02:37.979Z,1192
2017-08-05T05:03:18.381Z,1168
2017-08-05T05:03:58.714Z,1084
2017-08-05T05:04:39.194Z,996
2017-08-05T05:05:19.579Z,948
2017-08-05T05:05:59.923Z,920
2017-08-05T05:06:40.317Z,884
2017-08-05T05:07:20.714Z,836
2017-08-05T05:08:01.120Z,800
2017-08-05T05:08:41.469Z,784
2017-08-05T05:09:21.868Z,784
2017-08-05T05:10:02.402Z,772
2017-08-05T05:10:42.761Z,748
2017-08-05T05:11:23.138Z,752
2017-08-05T05:12:03.574Z,784
2017-08-05T05:12:43.967Z,840
2017-08-05T05:13:24.396Z,920
2017-08-05T05:14:04.778Z,984
2017-08-05T05:14:45.236Z,1036
2017-08-05T05:15:25.631Z,1100
2017-08-05T05:16:06.011Z,1168
2017-08-05T05:16:46.378Z,1284
2017-08-05T05:17:26.818Z,1376
2017-08-05T05:18:07.221Z,1384
2017-08-05T05:18:47.614Z,1336
2017-08-05T05:19:28.216Z,1288
2017-08-05T05:20:08.591Z,1252
2017-08-05T05:20:49.039Z,1172
2017-08-05T05:21:29.402Z,1048
2017-08-05T05:22:09.893Z,908
2017-08-05T05:22:50.308Z,816
2017-08-05T05:23:30.667Z,828
2017-08-05T05:24:11.063Z,956
2017-08-05T05:24:51.506Z,1128
2017-08-05T05:25:32.032Z,1336
2017-08-05T05:26:12.433Z,1612
2017-08-05T05:26:52.883Z,1936
2017-08-05T05:27:33.367Z,2096
2017-08-05T05:28:13.831Z,2024
2017-08-05T05:28:54.163Z,1824
2017-08-05T05:29:34.604Z,1576
2017-08-05T05:30:14.983Z,1352
2017-08-05T05:30:55.393Z,1236
2017-08-05T05:31:35.826Z,1232
2017-08-05T05:32:16.252Z,1324
2017-08-05T05:32:56.665Z,1480
2017-08-05T05:33:37.086Z,1648
2017-08-05T05:34:17.580Z,1860
2017-08-05T05:34:58.027Z,2108
2017-08-05T05:35:38.419Z,2304
2017-08-05T05:36:18.859Z,2392
2017-08-05T05:36:59.250Z,2368
2017-08-05T05:37:39.759Z,2308
2017-08-05T05:38:20.149Z,2256
2017-08-05T05:39:00.511Z,2172
2017-08-05T05:39:40.911Z,1984
2017-08-05T05:40:21.370Z,1764
2017-08-05T05:41:01.738Z,1556
2017-08-05T05:41:42.187Z,1376
2017-08-05T05:42:22.657Z,1260
2017-08-05T05:43:02.990Z,1216
2017-08-05T05:43:43.402Z,1196
2017-08-05T05:44:23.748Z,1208
2017-08-05T05:45:04.181Z,1252
2017-08-05T05:45:44.622Z,1336
2017-08-05T05:46:25.062Z,1432
2017-08-05T05:47:05.488Z,1496
2017-08-05T05:47:45.889Z,1524
2017-08-05T05:48:26.299Z,1556
2017-08-05T05:49:06.691Z,1628
2017-08-05T05:49:47.088Z,1708
2017-08-05T05:50:27.420Z,1796
2017-08-05T05:51:07.888Z,1844
2017-08-05T05:51:48.299Z,1800
2017-08-05T05:52:28.679Z,1696
2017-08-05T05:53:09.143Z,1624
2017-08-05T05:53:49.518Z,1564
2017-08-05T05:54:29.982Z,1524
2017-08-05T05:55:10.383Z,1504
2017-08-05T05:55:50.796Z,1588
2017-08-05T05:56:31.191Z,1892
2017-08-05T05:57:11.610Z,2324
2017-08-05T05:57:52.006Z,2548
2017-08-05T05:58:32.364Z,2504
2017-08-05T05:59:12.812Z,2348
2017-08-05T05:59:53.227Z,2136
2017-08-05T06:00:33.705Z,2000
2017-08-05T06:01:14.078Z,1912
2017-08-05T06:01:54.558Z,1916
2017-08-05T06:02:34.950Z,1908
2017-08-05T06:03:15.385Z,1996
2017-08-05T06:03:55.834Z,2096
2017-08-05T06:04:36.252Z,2220
2017-08-05T06:05:16.646Z,2312
2017-08-05T06:05:57.036Z,2444
2017-08-05T06:06:37.434Z,2444
2017-08-05T06:07:17.796Z,2324
2017-08-05T06:07:58.208Z,2172
2017-08-05T06:08:38.580Z,2092
2017-08-05T06:09:19.134Z,2084
2017-08-05T06:09:59.483Z,2256
2017-08-05T06:10:39.904Z,2536
2017-08-05T06:11:20.329Z,2836
2017-08-05T06:12:00.737Z,3008
2017-08-05T06:12:41.117Z,2912
2017-08-05T06:13:21.513Z,2712
2017-08-05T06:14:01.915Z,2504
2017-08-05T06:14:42.315Z,2292
2017-08-05T06:15:22.765Z,2192
2017-08-05T06:16:03.188Z,2060
2017-08-05T06:16:43.608Z,1944
2017-08-05T06:17:23.907Z,1888
2017-08-05T06:18:04.383Z,1788
2017-08-05T06:18:44.781Z,1636
2017-08-05T06:19:25.239Z,1520
2017-08-05T06:20:05.700Z,1492
2017-08-05T06:20:46.087Z,1524
2017-08-05T06:21:26.494Z,1636
2017-08-05T06:22:06.852Z,1816
2017-08-05T06:22:47.385Z,2044
2017-08-05T06:23:27.710Z,2184
2017-08-05T06:24:08.160Z,2336
2017-08-05T06:24:48.545Z,2440
2017-08-05T06:25:28.931Z,2332
2017-08-05T06:26:09.315Z,1936
2017-08-05T06:26:49.716Z,1564
2017-08-05T06:27:30.108Z,1472
2017-08-05T06:28:10.529Z,1672
2017-08-05T06:28:50.919Z,1968
2017-08-05T06:29:31.292Z,2168
2017-08-05T06:30:11.748Z,2080
2017-08-05T06:30:52.163Z,1856
2017-08-05T06:31:32.634Z,1620
2017-08-05T06:32:12.999Z,1524
2017-08-05T06:32:53.381Z,1600
2017-08-05T06:33:33.852Z,1648
2017-08-05T06:34:14.264Z,1488
2017-08-05T06:34:54.669Z,1364
2017-08-05T06:35:35.089Z,1264
2017-08-05T06:36:15.471Z,1176
2017-08-05T06:36:55.871Z,1196
2017-08-05T06:37:36.235Z,1364
2017-08-05T06:38:16.641Z,1748
2017-08-05T06:38:57.065Z,2224
2017-08-05T06:39:37.576Z,2672
2017-08-05T06:40:17.945Z,2804
2017-08-05T06:40:58.330Z,2708
2017-08-05T06:41:38.761Z,2528
2017-08-05T06:42:19.101Z,2336
2017-08-05T06:42:59.607Z,2228
2017-08-05T06:43:40.005Z,2048
2017-08-05T06:44:20.385Z,1860
2017-08-05T06:45:00.826Z,1780
2017-08-05T06:45:41.194Z,1764
2017-08-05T06:46:21.571Z,1720
2017-08-05T06:47:02.067Z,1700
2017-08-05T06:47:42.380Z,1716
2017-08-05T06:48:22.952Z,1732
2017-08-05T06:49:03.345Z,1808
2017-08-05T06:52:21.389Z,1796
2017-08-05T06:53:01.813Z,1768
2017-08-05T06:53:42.210Z,1828
2017-08-05T06:54:22.637Z,2016
2017-08-05T06:55:03.019Z,2336
2017-08-05T06:55:43.441Z,2340
2017-08-05T06:56:23.747Z,2160
2017-08-05T06:57:04.186Z,2044
2017-08-05T06:57:44.581Z,2172
2017-08-05T06:58:25.051Z,2472
2017-08-05T06:59:05.430Z,2452
2017-08-05T06:59:45.994Z,2480
2017-08-05T07:00:26.409Z,2304
2017-08-05T07:01:06.775Z,1864
2017-08-05T07:01:47.135Z,1680
2017-08-05T07:02:27.585Z,1840
2017-08-05T07:03:07.939Z,2096
2017-08-05T07:03:48.376Z,2192
2017-08-05T07:04:28.774Z,2096
2017-08-05T07:05:09.172Z,1924
2017-08-05T07:05:49.587Z,1896
2017-08-05T07:06:29.932Z,1968
2017-08-05T07:07:10.391Z,1892
2017-08-05T07:07:50.737Z,1712
2017-08-05T07:08:31.200Z,1628
2017-08-05T07:09:11.549Z,1700
2017-08-05T07:09:51.967Z,1700
2017-08-05T07:10:32.388Z,1628
2017-08-05T07:11:12.816Z,1608
2017-08-05T07:11:53.191Z,1664
2017-08-05T07:12:33.553Z,1748
2017-08-05T07:13:13.984Z,1888
2017-08-05T07:13:54.366Z,1968
2017-08-05T07:14:34.745Z,1948
2017-08-05T07:15:15.210Z,1972
2017-08-05T07:15:55.580Z,1952
2017-08-05T07:16:35.970Z,1948
2017-08-05T07:17:16.411Z,1996
2017-08-05T07:17:56.770Z,2044
2017-08-05T07:18:37.175Z,2144
2017-08-05T07:19:17.601Z,2168
2017-08-05T07:19:57.983Z,2180
2017-08-05T07:20:38.342Z,2260
2017-08-05T07:21:18.767Z,2440
2017-08-05T07:21:59.150Z,2540
2017-08-05T07:22:39.575Z,2532
2017-08-05T07:23:19.995Z,2460
2017-08-05T07:24:00.400Z,2364
2017-08-05T07:24:40.838Z,2212
2017-08-05T07:25:21.221Z,2084
2017-08-05T07:26:01.634Z,2080
2017-08-05T07:26:42.031Z,2268
2017-08-05T07:27:22.432Z,2336
2017-08-05T07:28:02.818Z,2236
2017-08-05T07:28:43.254Z,2296
2017-08-05T07:29:23.677Z,2344
2017-08-05T07:30:04.029Z,2348
2017-08-05T07:30:44.420Z,2344
2017-08-05T07:31:24.857Z,2480
2017-08-05T07:32:05.272Z,2628
2017-08-05T07:32:45.609Z,2828
2017-08-05T07:33:26.010Z,2676
2017-08-05T07:34:06.411Z,2412
2017-08-05T07:34:46.854Z,2360
2017-08-05T07:35:27.223Z,2440
2017-08-05T07:36:07.657Z,2500
2017-08-05T07:36:48.094Z,2648
2017-08-05T07:37:28.471Z,2832
2017-08-05T07:38:08.845Z,3136
2017-08-05T07:40:37.248Z,2968
2017-08-05T07:41:17.645Z,3080
2017-08-05T07:41:58.096Z,3108
2017-08-05T07:44:11.293Z,3132
2017-08-05T07:44:51.619Z,3224
2017-08-05T07:45:32.067Z,3232
2017-08-05T07:46:12.484Z,3288
2017-08-05T07:46:52.913Z,3248
2017-08-05T07:47:33.249Z,3540
2017-08-05T07:48:13.733Z,3600
2017-08-05T07:48:54.139Z,4240
2017-08-05T07:49:34.530Z,4340
2017-08-05T07:50:14.951Z,4388
2017-08-05T07:50:55.332Z,4400
2017-08-05T07:51:35.755Z,4368
2017-08-05T07:52:16.198Z,4288
2017-08-05T07:54:45.677Z,4420
2017-08-05T07:55:26.041Z,4608
2017-08-05T07:56:06.449Z,4520
2017-08-05T07:56:46.863Z,4628
2017-08-05T07:57:27.277Z,4808
2017-08-05T07:58:07.680Z,4640
2017-08-05T07:58:48.087Z,4316
2017-08-05T07:59:28.438Z,4096
2017-08-05T08:00:08.874Z,3708
2017-08-05T08:00:49.269Z,3472
2017-08-05T08:01:29.656Z,3624
2017-08-05T08:02:10.027Z,3744
2017-08-05T08:02:50.461Z,3740
2017-08-05T08:03:30.856Z,3632
2017-08-05T08:04:11.294Z,3396
2017-08-05T08:04:51.689Z,2836
2017-08-05T08:05:32.052Z,2324
2017-08-05T08:06:12.711Z,2092
2017-08-05T08:06:53.290Z,2160
2017-08-05T08:07:33.571Z,2500
2017-08-05T08:08:13.938Z,3084
2017-08-05T08:08:54.378Z,3588
2017-08-05T08:09:34.752Z,3608
2017-08-05T08:10:15.129Z,3408
2017-08-05T08:10:55.549Z,2844
2017-08-05T08:11:35.975Z,2368
2017-08-05T08:12:16.400Z,2132
2017-08-05T08:12:56.799Z,2076
2017-08-05T08:13:37.179Z,2052
2017-08-05T08:14:17.692Z,1996
2017-08-05T08:14:58.133Z,1980
2017-08-05T08:15:38.585Z,2096
2017-08-05T08:16:19.075Z,2268
2017-08-05T08:16:59.484Z,2308
2017-08-05T08:17:39.899Z,2340
2017-08-05T08:18:20.261Z,2344
2017-08-05T08:19:00.661Z,2380
2017-08-05T08:19:41.069Z,2584
2017-08-05T08:20:21.458Z,2756
2017-08-05T08:21:02.002Z,2900
2017-08-05T08:21:42.366Z,3284
2017-08-05T08:22:22.757Z,3432
2017-08-05T08:23:03.197Z,4160
2017-08-05T08:23:43.579Z,4132
2017-08-05T08:24:23.998Z,4088
2017-08-05T08:25:04.440Z,4432
2017-08-05T08:25:44.813Z,4648
2017-08-05T08:26:25.248Z,4468
2017-08-05T08:27:05.772Z,4152
2017-08-05T08:27:46.054Z,3888
2017-08-05T08:28:26.510Z,4456
2017-08-05T08:29:06.889Z,5136
2017-08-05T08:29:47.309Z,5332
2017-08-05T08:30:27.727Z,5036
2017-08-05T08:31:08.116Z,4984
2017-08-05T08:31:48.474Z,5396
2017-08-05T08:32:28.961Z,5640
2017-08-05T08:33:09.323Z,5748
2017-08-05T08:33:49.732Z,5684
2017-08-05T08:34:30.123Z,5748
2017-08-05T08:35:10.485Z,6264
2017-08-05T08:35:50.895Z,6464
2017-08-05T08:36:31.298Z,6000
2017-08-05T08:37:11.706Z,5792
2017-08-05T08:37:52.158Z,5620
2017-08-05T08:38:32.531Z,5880
2017-08-05T08:39:12.947Z,5792
2017-08-05T08:39:53.385Z,5600
2017-08-05T08:40:33.838Z,5116
2017-08-05T08:41:14.278Z,4628
2017-08-05T08:41:54.639Z,4320
2017-08-05T08:42:35.064Z,4200
2017-08-05T08:43:15.433Z,4344
2017-08-05T08:43:55.830Z,4552
2017-08-05T08:44:36.175Z,4576
2017-08-05T08:45:16.557Z,4584
2017-08-05T08:45:56.933Z,5204
2017-08-05T08:46:37.308Z,5600
2017-08-05T08:47:17.760Z,5636
2017-08-05T08:47:58.252Z,5404
2017-08-05T08:48:38.625Z,5272
2017-08-05T08:49:19.053Z,5924
2017-08-05T08:49:59.439Z,6140
2017-08-05T08:50:39.824Z,6220
2017-08-05T08:51:20.223Z,6216
2017-08-05T08:52:00.627Z,6284
2017-08-05T08:52:41.139Z,6412
2017-08-05T08:53:21.484Z,6640
2017-08-05T08:54:01.973Z,7536
2017-08-05T08:54:42.378Z,8344
2017-08-05T08:55:22.763Z,8096
2017-08-05T08:56:03.198Z,7980
2017-08-05T08:56:43.654Z,7584
2017-08-05T08:57:24.099Z,7232
2017-08-05T08:58:04.561Z,6764
2017-08-05T08:58:44.937Z,6288
2017-08-05T08:59:25.312Z,5772
2017-08-05T09:00:05.868Z,5436
2017-08-05T09:00:46.346Z,5628
2017-08-05T09:01:26.730Z,5924
2017-08-05T09:02:07.191Z,6024
2017-08-05T09:02:47.573Z,6028
2017-08-05T09:03:28.064Z,5996
2017-08-05T09:04:08.453Z,5792
2017-08-05T09:04:48.893Z,5960
2017-08-05T09:05:29.299Z,6396
2017-08-05T09:06:09.804Z,6860
2017-08-05T09:06:50.287Z,7596
2017-08-05T09:07:30.725Z,8744
2017-08-05T09:08:11.090Z,9608
2017-08-05T09:08:51.464Z,8800
2017-08-05T09:09:31.972Z,7944
2017-08-05T09:10:12.383Z,8132
2017-08-05T09:10:52.825Z,9092
2017-08-05T09:11:33.224Z,11284
2017-08-05T09:12:13.708Z,13944
2017-08-05T09:12:54.118Z,14676
2017-08-05T09:13:34.930Z,14384
2017-08-05T09:14:15.075Z,13696
2017-08-05T09:14:55.557Z,14460
2017-08-05T09:15:36.009Z,14132
2017-08-05T09:16:16.408Z,11676
2017-08-05T09:16:56.810Z,9924
2017-08-05T09:17:37.199Z,9016
2017-08-05T09:18:17.583Z,8496
2017-08-05T09:18:57.949Z,7280
2017-08-05T09:19:38.944Z,6344
2017-08-05T09:20:18.796Z,6200
2017-08-05T09:20:59.206Z,8384
2017-08-05T09:21:39.677Z,8676
2017-08-05T09:22:20.125Z,7064
2017-08-05T09:23:00.533Z,7144
2017-08-05T09:23:41.082Z,8776
2017-08-05T09:24:21.546Z,8048
2017-08-05T09:25:02.252Z,6240
2017-08-05T09:25:42.652Z,5044
2017-08-05T09:28:01.896Z,5284
2017-08-05T09:28:42.293Z,6296
2017-08-05T09:29:23.618Z,6504
2017-08-05T09:30:04.073Z,6796
2017-08-05T09:30:44.519Z,7212
2017-08-05T09:31:24.999Z,8052
2017-08-05T09:32:05.517Z,9136
2017-08-05T09:32:46.169Z,10560
2017-08-05T09:33:26.664Z,12076
2017-08-05T09:34:06.975Z,13832
2017-08-05T09:34:47.389Z,15544
2017-08-05T09:35:27.889Z,17376
2017-08-05T09:36:08.504Z,18720